createdAt,value
2022-08-12T00:00:09.265Z,39.74
2022-08-12T00:03:29.745Z,39.70
2022-08-12T00:06:52.072Z,39.57
2022-08-12T00:10:12.633Z,39.60
2022-08-12T00:13:32.874Z,39.87
2022-08-12T00:16:53.343Z,39.98
2022-08-12T00:20:13.181Z,39.76
2022-08-12T00:23:33.574Z,39.81
2022-08-12T00:26:54.104Z,39.90
2022-08-12T00:30:15.122Z,39.85
2022-08-12T00:33:51.679Z,40.16
2022-08-12T00:37:14.453Z,39.96
2022-08-12T00:40:35.048Z,40.34
2022-08-12T00:43:36.973Z,39.97
2022-08-12T00:46:49.494Z,40.39
2022-08-12T00:49:51.428Z,40.30
2022-08-12T00:52:53.096Z,40.27
2022-08-12T00:59:03.050Z,40.32
2022-08-12T01:02:11.196Z,40.17
2022-08-12T01:05:38.018Z,40.25
2022-08-12T01:08:58.388Z,40.39
2022-08-12T01:12:00.496Z,40.42
2022-08-12T01:15:02.894Z,40.64
2022-08-12T01:18:05.766Z,40.28
2022-08-12T01:21:19.370Z,40.41
2022-08-12T01:24:48.367Z,40.55
2022-08-12T01:27:53.200Z,40.78
2022-08-12T01:30:57.241Z,40.51
2022-08-12T01:34:28.658Z,40.55
2022-08-12T01:37:42.415Z,40.61
2022-08-12T01:40:47.128Z,40.81
2022-08-12T01:43:50.632Z,40.74
2022-08-12T01:47:34.332Z,40.66
2022-08-12T01:51:05.307Z,40.85
2022-08-12T01:54:21.808Z,40.78
2022-08-12T01:57:58.403Z,40.99
2022-08-12T02:01:03.718Z,40.82
2022-08-12T02:04:40.679Z,40.84
2022-08-12T02:08:15.139Z,41.02
2022-08-12T02:11:23.274Z,40.93
2022-08-12T02:14:30.846Z,41.05
2022-08-12T02:17:55.652Z,41.00
2022-08-12T02:21:05.758Z,40.85
2022-08-12T02:24:13.346Z,41.10
2022-08-12T02:27:17.420Z,41.08
2022-08-12T02:30:21.389Z,41.06
2022-08-12T02:33:24.015Z,41.17
2022-08-12T02:36:27.836Z,41.27
2022-08-12T02:39:37.223Z,41.12
2022-08-12T02:42:44.156Z,41.28
2022-08-12T02:46:14.789Z,41.33
2022-08-12T02:49:29.641Z,41.36
2022-08-12T02:52:33.022Z,41.19
2022-08-12T02:55:36.557Z,41.55
2022-08-12T02:58:41.276Z,41.43
2022-08-12T03:01:50.417Z,41.31
2022-08-12T03:04:56.738Z,41.51
2022-08-12T03:08:04.522Z,41.58
2022-08-12T03:11:15.174Z,41.54
2022-08-12T03:14:20.466Z,41.67
2022-08-12T03:17:36.552Z,41.60
2022-08-12T03:20:40.295Z,41.56
2022-08-12T03:23:42.476Z,41.78
2022-08-12T03:26:45.485Z,41.70
2022-08-12T03:29:50.307Z,41.83
2022-08-12T03:32:55.408Z,41.87
2022-08-12T03:35:59.822Z,41.69
2022-08-12T03:39:17.169Z,41.80
2022-08-12T03:42:38.253Z,41.75
2022-08-12T03:45:58.868Z,41.90
2022-08-12T03:49:19.787Z,41.88
2022-08-12T03:52:40.250Z,41.87
2022-08-12T03:56:00.765Z,41.90
2022-08-12T03:59:23.557Z,42.25
2022-08-12T04:02:25.608Z,41.92
2022-08-12T04:05:54.260Z,42.16
2022-08-12T04:08:57.598Z,42.10
2022-08-12T04:12:17.611Z,42.06
2022-08-12T04:15:20.209Z,42.01
2022-08-12T04:18:23.584Z,42.21
2022-08-12T04:21:25.986Z,42.38
2022-08-12T04:24:29.137Z,42.40
2022-08-12T04:27:32.379Z,42.50
2022-08-12T04:30:35.797Z,42.50
2022-08-12T04:33:37.637Z,42.29
2022-08-12T04:36:41.009Z,42.40
2022-08-12T04:39:44.821Z,42.50
2022-08-12T04:42:46.646Z,42.63
2022-08-12T04:45:49.454Z,42.42
2022-08-12T04:48:52.128Z,42.62
2022-08-12T04:51:59.213Z,42.46
2022-08-12T04:55:01.943Z,42.56
2022-08-12T04:58:03.695Z,42.76
2022-08-12T05:01:06.582Z,42.54
2022-08-12T05:04:09.969Z,43.09
2022-08-12T05:07:11.820Z,42.97
2022-08-12T05:10:13.868Z,42.83
2022-08-12T05:13:29.512Z,43.10
2022-08-12T05:16:33.065Z,43.15
2022-08-12T05:19:36.116Z,42.89
2022-08-12T05:22:39.236Z,42.99
2022-08-12T05:25:43.361Z,43.16
2022-08-12T05:28:46.249Z,43.04
2022-08-12T05:31:49.645Z,43.07
2022-08-12T05:34:51.681Z,43.24
2022-08-12T05:38:13.588Z,43.19
2022-08-12T05:41:21.385Z,43.15
2022-08-12T05:44:23.047Z,43.13
2022-08-12T05:47:24.716Z,43.17
2022-08-12T05:50:47.281Z,43.08
2022-08-12T05:53:48.922Z,43.16
2022-08-12T05:56:51.765Z,43.17
2022-08-12T05:59:53.600Z,43.16
2022-08-12T06:03:02.714Z,43.25
2022-08-12T06:06:07.148Z,43.25
2022-08-12T06:09:13.256Z,43.33
2022-08-12T06:12:18.010Z,43.26
2022-08-12T06:15:21.176Z,43.26
2022-08-12T06:18:26.627Z,43.17
2022-08-12T06:21:31.394Z,43.25
2022-08-12T06:24:33.381Z,43.21
2022-08-12T06:28:06.531Z,43.11
2022-08-12T06:31:25.903Z,43.45
2022-08-12T06:35:27.249Z,42.94
2022-08-12T06:37:58.020Z,43.24
2022-08-12T06:41:19.731Z,43.15
2022-08-12T06:44:21.356Z,43.07
2022-08-12T06:47:22.911Z,43.18
2022-08-12T06:50:26.831Z,43.28
2022-08-12T06:53:34.065Z,43.21
2022-08-12T06:59:58.284Z,42.86
2022-08-12T07:03:01.352Z,43.20
2022-08-12T07:06:25.358Z,43.02
2022-08-12T07:09:58.040Z,42.68
2022-08-12T07:12:54.984Z,42.60
2022-08-12T07:15:56.862Z,42.97
2022-08-12T07:19:00.094Z,42.85
2022-08-12T07:22:06.480Z,42.81
2022-08-12T07:25:27.053Z,42.54
2022-08-12T07:28:31.438Z,42.59
2022-08-12T07:31:33.104Z,42.50
2022-08-12T07:34:34.709Z,42.42
2022-08-12T07:37:41.954Z,42.40
2022-08-12T07:40:43.756Z,42.53
2022-08-12T07:43:52.019Z,42.26
2022-08-12T07:46:53.584Z,42.18
2022-08-12T07:50:05.746Z,42.18
2022-08-12T07:53:08.257Z,42.19
2022-08-12T07:56:10.880Z,42.42
2022-08-12T07:59:12.634Z,42.40
2022-08-12T08:02:14.174Z,42.46
2022-08-12T08:05:16.289Z,42.15
2022-08-12T08:08:24.791Z,41.99
2022-08-12T08:11:45.540Z,42.14
2022-08-12T08:14:48.351Z,42.25
2022-08-12T08:18:04.181Z,42.27
2022-08-12T08:21:06.127Z,42.21
2022-08-12T08:24:16.131Z,42.28
2022-08-12T08:27:17.847Z,42.04
2022-08-12T08:30:19.613Z,42.00
2022-08-12T08:33:55.415Z,41.82
2022-08-12T08:36:45.420Z,41.84
2022-08-12T08:39:47.138Z,41.70
2022-08-12T08:42:51.354Z,41.60
2022-08-12T08:45:55.510Z,41.64
2022-08-12T08:48:59.546Z,41.40
2022-08-12T08:52:01.290Z,41.25
2022-08-12T08:55:04.304Z,41.32
2022-08-12T08:58:06.401Z,41.10
2022-08-12T09:01:08.115Z,41.13
2022-08-12T09:05:07.306Z,41.14
2022-08-12T09:07:51.360Z,40.91
2022-08-12T09:12:06.559Z,40.90
2022-08-12T09:18:08.510Z,40.78
2022-08-12T09:21:10.701Z,40.51
2022-08-12T09:24:12.546Z,40.58
2022-08-12T09:27:17.505Z,40.45
2022-08-12T09:30:42.107Z,40.35
2022-08-12T09:34:28.602Z,40.16
2022-08-12T09:37:19.443Z,39.96
2022-08-12T09:40:57.167Z,40.06
2022-08-12T09:44:06.237Z,40.15
2022-08-12T09:47:10.825Z,39.92
2022-08-12T09:50:20.609Z,39.52
2022-08-12T09:53:29.277Z,39.53
2022-08-12T09:56:58.399Z,39.44
2022-08-12T10:00:13.649Z,39.32
2022-08-12T10:03:31.448Z,39.43
2022-08-12T10:06:36.570Z,39.41
2022-08-12T10:09:57.938Z,39.16
2022-08-12T10:13:37.647Z,38.92
2022-08-12T10:16:44.394Z,38.91
2022-08-12T10:19:52.006Z,38.54
2022-08-12T10:22:58.763Z,38.42
2022-08-12T10:26:37.278Z,37.98
2022-08-12T10:30:03.804Z,37.74
2022-08-12T10:33:04.632Z,38.17
2022-08-12T10:36:21.006Z,38.09
2022-08-12T10:40:01.942Z,37.47
2022-08-12T10:43:20.643Z,37.40
2022-08-12T10:46:22.332Z,37.66
2022-08-12T10:50:03.113Z,37.59
2022-08-12T10:52:56.145Z,37.14
2022-08-12T10:55:57.886Z,37.00
2022-08-12T10:59:05.396Z,37.01
2022-08-12T11:04:23.367Z,36.84
2022-08-12T11:07:06.193Z,36.90
2022-08-12T11:08:57.115Z,36.40
2022-08-12T11:12:34.712Z,36.38
2022-08-12T11:16:04.266Z,36.17
2022-08-12T11:18:47.467Z,36.08
2022-08-12T11:22:02.890Z,36.15
2022-08-12T11:25:10.578Z,35.89
2022-08-12T11:28:14.926Z,35.81
2022-08-12T11:31:17.701Z,35.58
2022-08-12T11:34:53.085Z,35.41
2022-08-12T11:37:58.009Z,35.12
2022-08-12T11:41:02.366Z,35.15
2022-08-12T11:44:35.418Z,34.74
2022-08-12T11:47:25.725Z,35.01
2022-08-12T11:50:32.232Z,34.43
2022-08-12T11:53:57.543Z,34.44
2022-08-12T11:56:59.495Z,34.46
2022-08-12T12:03:25.021Z,34.30
2022-08-12T12:06:53.268Z,34.16
2022-08-12T12:09:55.766Z,34.09
2022-08-12T12:12:57.447Z,34.05
2022-08-12T12:16:00.241Z,33.52
2022-08-12T12:19:01.916Z,33.79
2022-08-12T12:22:03.743Z,33.71
2022-08-12T12:25:12.549Z,33.57
2022-08-12T12:28:36.520Z,33.50
2022-08-12T12:32:10.630Z,33.09
2022-08-12T12:35:44.528Z,33.19
2022-08-12T12:38:25.295Z,33.11
2022-08-12T12:42:54.337Z,33.01
2022-08-12T12:44:51.030Z,32.99
2022-08-12T12:48:17.281Z,32.81
2022-08-12T12:51:49.136Z,32.93
2022-08-12T12:54:52.677Z,32.78
2022-08-12T12:58:00.355Z,32.34
2022-08-12T13:01:04.898Z,32.30
2022-08-12T13:04:24.691Z,32.38
2022-08-12T13:07:54.726Z,32.21
2022-08-12T13:10:50.311Z,32.28
2022-08-12T13:14:09.118Z,31.80
2022-08-12T13:17:17.564Z,32.00
2022-08-12T13:20:38.498Z,32.14
2022-08-12T13:23:46.501Z,31.88
2022-08-12T13:26:49.727Z,32.06
2022-08-12T13:29:58.162Z,31.39
2022-08-12T13:33:06.211Z,31.53
2022-08-12T13:36:21.011Z,31.60
2022-08-12T13:39:24.502Z,31.69
2022-08-12T13:42:29.083Z,31.30
2022-08-12T13:45:31.812Z,31.64
2022-08-12T13:48:33.450Z,31.17
2022-08-12T13:51:41.256Z,31.07
2022-08-12T13:54:43.319Z,31.64
2022-08-12T13:58:00.021Z,31.06
2022-08-12T14:01:05.682Z,31.51
2022-08-12T14:04:11.610Z,30.81
2022-08-12T14:07:13.733Z,30.76
2022-08-12T14:10:37.793Z,31.23
2022-08-12T14:14:03.575Z,30.64
2022-08-12T14:17:05.750Z,31.01
2022-08-12T14:20:13.249Z,31.03
2022-08-12T14:24:01.521Z,30.87
2022-08-12T14:26:39.780Z,30.62
2022-08-12T14:30:05.106Z,30.55
2022-08-12T14:33:09.125Z,30.77
2022-08-12T14:36:13.388Z,30.59
2022-08-12T14:39:17.488Z,30.21
2022-08-12T14:42:19.997Z,30.69
2022-08-12T14:45:23.007Z,30.46
2022-08-12T14:48:25.535Z,30.15
2022-08-12T14:52:42.744Z,30.52
2022-08-12T14:58:14.219Z,30.29
2022-08-12T15:01:35.076Z,30.27
2022-08-12T15:04:36.738Z,30.35
2022-08-12T15:07:49.921Z,30.48
2022-08-12T15:10:55.534Z,30.37
2022-08-12T15:13:59.184Z,30.13
2022-08-12T15:17:01.169Z,29.82
2022-08-12T15:20:28.413Z,30.30
2022-08-12T15:23:28.943Z,29.94
2022-08-12T15:26:40.866Z,30.02
2022-08-12T15:29:42.688Z,30.43
2022-08-12T15:32:48.924Z,29.78
2022-08-12T15:35:54.014Z,30.23
2022-08-12T15:38:55.979Z,29.83
2022-08-12T15:42:01.985Z,29.82
2022-08-12T15:45:08.461Z,29.61
2022-08-12T15:48:16.666Z,29.85
2022-08-12T15:51:59.141Z,29.71
2022-08-12T15:54:52.731Z,30.06
2022-08-12T15:58:02.081Z,29.91
2022-08-12T16:01:08.796Z,29.75
2022-08-12T16:04:13.640Z,29.65
2022-08-12T16:07:29.834Z,29.35
2022-08-12T16:10:33.529Z,29.84
2022-08-12T16:13:36.421Z,29.88
2022-08-12T16:16:38.073Z,29.50
2022-08-12T16:20:03.922Z,29.86
2022-08-12T16:23:26.990Z,29.45
2022-08-12T16:26:36.678Z,29.84
2022-08-12T16:29:53.357Z,29.68
2022-08-12T16:32:58.478Z,29.93
2022-08-12T16:36:00.806Z,29.71
2022-08-12T16:39:04.157Z,29.52
2022-08-12T16:42:06.832Z,29.43
2022-08-12T16:45:10.640Z,29.29
2022-08-12T16:48:33.903Z,29.44
2022-08-12T16:51:40.319Z,29.57
2022-08-12T16:54:44.249Z,29.65
2022-08-12T16:57:48.696Z,29.44
2022-08-12T17:00:51.445Z,29.25
2022-08-12T17:04:09.088Z,29.50
2022-08-12T17:07:17.051Z,29.45
2022-08-12T17:10:36.930Z,29.63
2022-08-12T17:13:53.180Z,29.44
2022-08-12T17:16:55.813Z,29.46
2022-08-12T17:20:34.828Z,29.52
2022-08-12T17:23:33.388Z,29.17
2022-08-12T17:26:53.849Z,29.26
2022-08-12T17:30:00.780Z,29.41
2022-08-12T17:33:07.038Z,29.41
2022-08-12T17:36:10.690Z,29.54
2022-08-12T17:39:12.703Z,29.36
2022-08-12T17:42:32.615Z,29.40
2022-08-12T17:45:43.132Z,29.33
2022-08-12T17:48:55.196Z,29.48
2022-08-12T17:52:02.423Z,29.26
2022-08-12T17:55:33.579Z,29.29
2022-08-12T17:58:37.567Z,29.41
2022-08-12T18:01:44.196Z,29.35
2022-08-12T18:05:04.526Z,29.36
2022-08-12T18:08:11.112Z,29.49
2022-08-12T18:12:05.833Z,29.50
2022-08-12T18:15:01.418Z,29.64
2022-08-12T18:18:03.751Z,29.55
2022-08-12T18:21:09.108Z,29.77
2022-08-12T18:24:19.822Z,29.79
2022-08-12T18:27:30.061Z,29.65
2022-08-12T18:30:35.997Z,29.85
2022-08-12T18:33:45.897Z,30.09
2022-08-12T18:36:50.285Z,29.97
2022-08-12T18:40:12.530Z,30.03
2022-08-12T18:43:19.486Z,29.97
2022-08-12T18:46:29.251Z,30.40
2022-08-12T18:49:38.706Z,30.54
2022-08-12T18:52:44.876Z,30.13
2022-08-12T18:55:57.382Z,30.38
2022-08-12T18:59:02.950Z,30.48
2022-08-12T19:02:19.743Z,30.56
2022-08-12T19:05:53.039Z,30.58
2022-08-12T19:08:49.392Z,30.76
2022-08-12T19:12:10.635Z,30.79
2022-08-12T19:15:24.105Z,30.53
2022-08-12T19:18:29.259Z,30.70
2022-08-12T19:21:37.128Z,30.67
2022-08-12T19:24:57.968Z,30.61
2022-08-12T19:27:59.688Z,31.20
2022-08-12T19:31:55.872Z,31.13
2022-08-12T19:38:19.106Z,30.84
2022-08-12T19:41:22.983Z,30.75
2022-08-12T19:44:26.478Z,30.93
2022-08-12T19:47:31.240Z,31.33
2022-08-12T19:50:40.965Z,31.28
2022-08-12T19:53:58.169Z,31.15
2022-08-12T19:57:01.512Z,30.97
2022-08-12T20:00:07.409Z,31.11
2022-08-12T20:03:39.319Z,31.51
2022-08-12T20:06:51.615Z,31.38
2022-08-12T20:09:55.883Z,31.31
2022-08-12T20:13:18.556Z,31.76
2022-08-12T20:16:51.110Z,31.34
2022-08-12T20:20:01.078Z,31.74
2022-08-12T20:23:08.829Z,31.74
2022-08-12T20:26:11.223Z,31.69
2022-08-12T20:29:13.684Z,31.62
2022-08-12T20:32:15.328Z,31.69
2022-08-12T20:35:24.956Z,32.05
2022-08-12T20:38:42.181Z,32.19
2022-08-12T20:41:50.956Z,31.98
2022-08-12T20:44:54.176Z,32.20
2022-08-12T20:48:04.127Z,32.20
2022-08-12T20:51:10.415Z,32.13
2022-08-12T20:54:22.214Z,32.28
2022-08-12T20:57:24.035Z,32.46
2022-08-12T21:00:28.410Z,32.50
2022-08-12T21:03:52.642Z,32.55
2022-08-12T21:07:04.664Z,32.48
2022-08-12T21:10:11.536Z,32.63
2022-08-12T21:13:20.616Z,32.78
2022-08-12T21:16:35.290Z,32.71
2022-08-12T21:19:52.955Z,32.79
2022-08-12T21:22:56.076Z,32.58
2022-08-12T21:26:01.262Z,32.67
2022-08-12T21:29:12.517Z,32.78
2022-08-12T21:32:39.366Z,32.83
2022-08-12T21:35:40.158Z,32.74
2022-08-12T21:38:43.143Z,32.83
2022-08-12T21:41:50.065Z,32.87
2022-08-12T21:45:46.239Z,32.89
2022-08-12T21:48:14.969Z,32.85
2022-08-12T21:51:23.001Z,32.97
2022-08-12T21:54:26.081Z,32.90
2022-08-12T21:57:36.379Z,32.90
2022-08-12T22:00:52.275Z,32.92
2022-08-12T22:04:12.927Z,33.27
2022-08-12T22:07:18.601Z,33.07
2022-08-12T22:10:28.270Z,33.24
2022-08-12T22:14:08.001Z,33.24
2022-08-12T22:16:55.924Z,33.04
2022-08-12T22:19:57.589Z,33.36
2022-08-12T22:23:00.371Z,33.46
2022-08-12T22:26:08.062Z,33.37
2022-08-12T22:29:29.061Z,33.51
2022-08-12T22:32:30.839Z,33.44
2022-08-12T22:35:56.262Z,33.52
2022-08-12T22:38:59.462Z,33.45
2022-08-12T22:42:24.328Z,33.84
2022-08-12T22:45:48.405Z,33.89
2022-08-12T22:48:52.515Z,33.66
2022-08-12T22:52:00.999Z,33.86
2022-08-12T22:55:06.221Z,34.25
2022-08-12T22:58:12.522Z,33.95
2022-08-12T23:01:21.269Z,34.21
2022-08-12T23:04:36.020Z,34.01
2022-08-12T23:07:58.818Z,34.49
2022-08-12T23:11:06.086Z,34.36
2022-08-12T23:14:11.727Z,34.61
2022-08-12T23:17:40.376Z,34.39
2022-08-12T23:20:34.887Z,34.75
2022-08-12T23:23:57.573Z,34.76
2022-08-12T23:27:18.340Z,34.47
2022-08-12T23:30:31.205Z,34.54
2022-08-12T23:34:02.081Z,35.01
2022-08-12T23:36:59.600Z,34.94
2022-08-12T23:40:14.246Z,34.98
2022-08-12T23:43:17.775Z,34.69
2022-08-12T23:46:25.626Z,34.99
2022-08-12T23:49:56.208Z,35.29
2022-08-12T23:52:51.604Z,35.20
2022-08-12T23:55:56.864Z,34.99
2022-08-12T23:59:00.056Z,35.40
